Time,TemperatureF,DewpointF,PressureIn,WindDirection,WindDirectionDegrees,WindSpeedMPH,WindSpeedGustMPH,Humidity,HourlyPrecipIn,Conditions,Clouds,dailyrainin,SoftwareType,DateUTC
2017-06-22 00:04:00,78.1,77.8,30.05,North,-9999,-999.9,-999.0,99,-99.99,,,-99.99,BloomSky,2017-06-22 04:04:00,
2017-06-22 00:09:00,78.0,77.7,30.05,North,-9999,-999.9,-999.0,99,-99.99,,,-99.99,BloomSky,2017-06-22 04:09:00,
2017-06-22 00:19:00,77.9,77.6,30.05,North,-9999,-999.9,-999.0,99,-99.99,,,-99.99,BloomSky,2017-06-22 04:19:00,
2017-06-22 00:29:00,77.8,-16.4,30.05,North,-9999,-999.9,-999.0,1,-99.99,,,-99.99,BloomSky,2017-06-22 04:29:00,
2017-06-22 00:34:00,77.7,77.4,30.02,North,-9999,-999.9,-999.0,99,-99.99,,,-99.99,BloomSky,2017-06-22 04:34:00,
2017-06-22 00:39:00,77.6,77.3,30.02,North,-9999,-999.9,-999.0,99,-99.99,,,-99.99,BloomSky,2017-06-22 04:39:00,
2017-06-22 00:44:00,77.5,77.2,30.02,North,-9999,-999.9,-999.0,99,-99.99,,,-99.99,BloomSky,2017-06-22 04:44:00,
2017-06-22 00:49:00,77.5,-16.6,30.02,North,-9999,-999.9,-999.0,1,-99.99,,,-99.99,BloomSky,2017-06-22 04:49:00,
2017-06-22 00:54:00,77.4,-16.6,30.02,North,-9999,-999.9,-999.0,1,-99.99,,,-99.99,BloomSky,2017-06-22 04:54:00,
2017-06-22 00:59:00,77.3,-16.7,30.02,North,-9999,-999.9,-999.0,1,-99.99,,,-99.99,BloomSky,2017-06-22 04:59:00,
2017-06-22 01:04:00,77.2,-11.5,30.02,North,-9999,-999.9,-999.0,2,-99.99,,,-99.99,BloomSky,2017-06-22 05:04:00,
2017-06-22 01:14:00,76.9,-16.9,30.02,North,-9999,-999.9,-999.0,1,-99.99,,,-99.99,BloomSky,2017-06-22 05:14:00,
2017-06-22 01:19:00,76.8,-7.1,30.02,North,-9999,-999.9,-999.0,3,-99.99,,,-99.99,BloomSky,2017-06-22 05:19:00,
2017-06-22 01:24:00,76.7,-11.8,30.02,North,-9999,-999.9,-999.0,2,-99.99,,,-99.99,BloomSky,2017-06-22 05:24:00,
2017-06-22 01:29:00,76.6,-11.9,30.02,North,-9999,-999.9,-999.0,2,-99.99,,,-99.99,BloomSky,2017-06-22 05:29:00,
2017-06-22 01:34:00,76.5,-7.3,30.02,North,-9999,-999.9,-999.0,3,-99.99,,,-99.99,BloomSky,2017-06-22 05:34:00,
2017-06-22 01:39:00,76.5,-7.3,30.02,North,-9999,-999.9,-999.0,3,-99.99,,,-99.99,BloomSky,2017-06-22 05:39:00,
2017-06-22 01:45:00,76.4,-3.1,30.02,North,-9999,-999.9,-999.0,4,-99.99,,,-99.99,BloomSky,2017-06-22 05:45:00,
2017-06-22 01:50:00,76.3,-3.2,29.99,North,-9999,-999.9,-999.0,4,-99.99,,,-99.99,BloomSky,2017-06-22 05:50:00,
2017-06-22 01:55:00,76.2,-3.2,29.99,North,-9999,-999.9,-999.0,4,-99.99,,,-99.99,BloomSky,2017-06-22 05:55:00,
2017-06-22 02:00:00,76.2,-3.3,29.99,North,-9999,-999.9,-999.0,4,-99.99,,,-99.99,BloomSky,2017-06-22 06:00:00,
2017-06-22 02:10:00,76.3,7.4,29.99,North,-9999,-999.9,-999.0,7,-99.99,,,-99.99,BloomSky,2017-06-22 06:10:00,
2017-06-22 02:15:00,76.2,12.9,29.99,North,-9999,-999.9,-999.0,9,-99.99,,,-99.99,BloomSky,2017-06-22 06:15:00,
2017-06-22 02:20:00,76.1,10.2,29.99,North,-9999,-999.9,-999.0,8,-99.99,,,-99.99,BloomSky,2017-06-22 06:20:00,
2017-06-22 02:25:00,76.0,10.1,29.99,North,-9999,-999.9,-999.0,8,-99.99,,,-99.99,BloomSky,2017-06-22 06:25:00,
2017-06-22 02:30:00,76.0,15.2,29.99,North,-9999,-999.9,-999.0,10,-99.99,,,-99.99,BloomSky,2017-06-22 06:30:00,
2017-06-22 02:35:00,75.8,15.0,29.99,North,-9999,-999.9,-999.0,10,-99.99,,,-99.99,BloomSky,2017-06-22 06:35:00,
2017-06-22 02:45:00,75.7,17.2,29.99,North,-9999,-999.9,-999.0,11,-99.99,,,-99.99,BloomSky,2017-06-22 06:45:00,
2017-06-22 02:50:00,75.6,19.2,29.99,North,-9999,-999.9,-999.0,12,-99.99,,,-99.99,BloomSky,2017-06-22 06:50:00,
2017-06-22 03:00:00,75.5,19.2,29.99,North,-9999,-999.9,-999.0,12,-99.99,,,-99.99,BloomSky,2017-06-22 07:00:00,
2017-06-22 03:05:00,75.5,17.0,29.99,North,-9999,-999.9,-999.0,11,-99.99,,,-99.99,BloomSky,2017-06-22 07:05:00,
2017-06-22 03:10:00,75.3,16.9,29.99,North,-9999,-999.9,-999.0,11,-99.99,,,-99.99,BloomSky,2017-06-22 07:10:00,
2017-06-22 03:20:00,75.3,22.7,29.96,North,-9999,-999.9,-999.0,14,-99.99,,,-99.99,BloomSky,2017-06-22 07:20:00,
2017-06-22 03:25:00,75.3,24.4,29.96,North,-9999,-999.9,-999.0,15,-99.99,,,-99.99,BloomSky,2017-06-22 07:25:00,
2017-06-22 03:40:00,75.0,22.5,29.96,North,-9999,-999.9,-999.0,14,-99.99,,,-99.99,BloomSky,2017-06-22 07:40:00,
2017-06-22 03:45:00,74.9,24.1,29.96,North,-9999,-999.9,-999.0,15,-99.99,,,-99.99,BloomSky,2017-06-22 07:45:00,
2017-06-22 03:50:00,74.9,24.0,29.96,North,-9999,-999.9,-999.0,15,-99.99,,,-99.99,BloomSky,2017-06-22 07:50:00,
2017-06-22 03:56:00,74.8,24.0,29.96,North,-9999,-999.9,-999.0,15,-99.99,,,-99.99,BloomSky,2017-06-22 07:56:00,
2017-06-22 04:06:00,72.6,22.3,29.96,North,-9999,-999.9,-999.0,15,-99.99,,,-99.99,BloomSky,2017-06-22 08:06:00,
2017-06-22 04:11:00,72.6,22.2,29.96,North,-9999,-999.9,-999.0,15,-99.99,,,-99.99,BloomSky,2017-06-22 08:11:00,
2017-06-22 04:16:00,72.7,25.3,29.93,North,-9999,-999.9,-999.0,17,-99.99,,,-99.99,BloomSky,2017-06-22 08:16:00,
2017-06-22 04:21:00,72.6,23.8,29.93,North,-9999,-999.9,-999.0,16,-99.99,,,-99.99,BloomSky,2017-06-22 08:21:00,
2017-06-22 04:31:00,72.5,25.2,29.93,North,-9999,-999.9,-999.0,17,-99.99,,,-99.99,BloomSky,2017-06-22 08:31:00,
2017-06-22 04:36:00,72.5,25.2,29.93,North,-9999,-999.9,-999.0,17,-99.99,,,-99.99,BloomSky,2017-06-22 08:36:00,
2017-06-22 04:41:00,72.8,28.1,29.93,North,-9999,-999.9,-999.0,19,-99.99,,,-99.99,BloomSky,2017-06-22 08:41:00,
2017-06-22 04:46:00,72.6,26.6,29.93,North,-9999,-999.9,-999.0,18,-99.99,,,-99.99,BloomSky,2017-06-22 08:46:00,
2017-06-22 04:51:00,72.6,26.6,29.93,North,-9999,-999.9,-999.0,18,-99.99,,,-99.99,BloomSky,2017-06-22 08:51:00,
2017-06-22 05:01:00,72.5,26.5,29.93,North,-9999,-999.9,-999.0,18,-99.99,,,-99.99,BloomSky,2017-06-22 09:01:00,
2017-06-22 05:06:00,72.4,26.5,29.93,North,-9999,-999.9,-999.0,18,-99.99,,,-99.99,BloomSky,2017-06-22 09:06:00,
2017-06-22 05:11:00,72.4,27.8,29.93,North,-9999,-999.9,-999.0,19,-99.99,,,-99.99,BloomSky,2017-06-22 09:11:00,
2017-06-22 05:16:00,72.6,29.2,29.93,North,-9999,-999.9,-999.0,20,-99.99,,,-99.99,BloomSky,2017-06-22 09:16:00,
2017-06-22 05:21:00,72.6,29.2,29.93,North,-9999,-999.9,-999.0,20,-99.99,,,-99.99,BloomSky,2017-06-22 09:21:00,
2017-06-22 05:26:00,72.6,30.4,29.90,North,-9999,-999.9,-999.0,21,-99.99,,,-99.99,BloomSky,2017-06-22 09:26:00,
2017-06-22 05:31:00,72.7,30.4,29.90,North,-9999,-999.9,-999.0,21,-99.99,,,-99.99,BloomSky,2017-06-22 09:31:00,
2017-06-22 05:36:00,72.7,31.5,29.90,North,-9999,-999.9,-999.0,22,-99.99,,,-99.99,BloomSky,2017-06-22 09:36:00,
2017-06-22 05:41:00,72.6,31.5,29.90,North,-9999,-999.9,-999.0,22,-99.99,,,-99.99,BloomSky,2017-06-22 09:41:00,
2017-06-22 05:46:00,72.6,31.5,29.90,North,-9999,-999.9,-999.0,22,-99.99,,,-99.99,BloomSky,2017-06-22 09:46:00,
2017-06-22 05:55:00,72.6,31.5,29.90,North,-9999,-999.9,-999.0,22,-99.99,,,-99.99,BloomSky,2017-06-22 09:55:00,
2017-06-22 06:01:00,72.6,31.5,29.90,North,-9999,-999.9,-999.0,22,-99.99,,,-99.99,BloomSky,2017-06-22 10:01:00,
2017-06-22 06:07:00,72.7,32.6,29.90,North,-9999,-999.9,-999.0,23,-99.99,,,-99.99,BloomSky,2017-06-22 10:07:00,
2017-06-22 06:13:00,72.8,32.7,29.90,North,-9999,-999.9,-999.0,23,-99.99,,,-99.99,BloomSky,2017-06-22 10:13:00,
2017-06-22 06:19:00,72.9,33.8,29.90,North,-9999,-999.9,-999.0,24,-99.99,,,-99.99,BloomSky,2017-06-22 10:19:00,
2017-06-22 06:25:00,73.0,34.0,29.90,North,-9999,-999.9,-999.0,24,-99.99,,,-99.99,BloomSky,2017-06-22 10:25:00,
2017-06-22 06:31:00,73.1,34.0,29.90,North,-9999,-999.9,-999.0,24,-99.99,,,-99.99,BloomSky,2017-06-22 10:31:00,
2017-06-22 06:37:00,73.2,34.1,29.90,North,-9999,-999.9,-999.0,24,-99.99,,,-99.99,BloomSky,2017-06-22 10:37:00,
2017-06-22 06:43:00,73.2,34.1,29.90,North,-9999,-999.9,-999.0,24,-99.99,,,-99.99,BloomSky,2017-06-22 10:43:00,
2017-06-22 06:49:00,73.2,34.1,29.90,North,-9999,-999.9,-999.0,24,-99.99,,,-99.99,BloomSky,2017-06-22 10:49:00,
2017-06-22 06:55:00,73.2,34.1,29.90,North,-9999,-999.9,-999.0,24,-99.99,,,-99.99,BloomSky,2017-06-22 10:55:00,
2017-06-22 07:01:00,73.4,34.3,29.90,North,-9999,-999.9,-999.0,24,-99.99,,,-99.99,BloomSky,2017-06-22 11:01:00,
2017-06-22 07:06:00,73.6,34.4,29.90,North,-9999,-999.9,-999.0,24,-99.99,,,-99.99,BloomSky,2017-06-22 11:06:00,
2017-06-22 07:11:00,73.7,34.5,29.90,North,-9999,-999.9,-999.0,24,-99.99,,,-99.99,BloomSky,2017-06-22 11:11:00,
2017-06-22 07:16:00,73.8,33.6,29.90,North,-9999,-999.9,-999.0,23,-99.99,,,-99.99,BloomSky,2017-06-22 11:16:00,
2017-06-22 07:21:00,73.9,33.7,29.93,North,-9999,-999.9,-999.0,23,-99.99,,,-99.99,BloomSky,2017-06-22 11:21:00,
2017-06-22 07:31:00,74.2,30.5,29.93,North,-9999,-999.9,-999.0,20,-99.99,,,-99.99,BloomSky,2017-06-22 11:31:00,
2017-06-22 07:36:00,74.5,29.5,29.93,North,-9999,-999.9,-999.0,19,-99.99,,,-99.99,BloomSky,2017-06-22 11:36:00,
2017-06-22 07:41:00,74.6,23.9,29.93,North,-9999,-999.9,-999.0,15,-99.99,,,-99.99,BloomSky,2017-06-22 11:41:00,
2017-06-22 07:46:00,74.9,18.7,29.93,North,-9999,-999.9,-999.0,12,-99.99,,,-99.99,BloomSky,2017-06-22 11:46:00,
2017-06-22 07:51:00,75.2,14.5,29.93,North,-9999,-999.9,-999.0,10,-99.99,,,-99.99,BloomSky,2017-06-22 11:51:00,
2017-06-22 08:01:00,74.8,-0.4,29.99,North,-9999,-999.9,-999.0,5,-99.99,,,-99.99,BloomSky,2017-06-22 12:01:00,
2017-06-22 08:06:00,75.1,-4.0,29.99,North,-9999,-999.9,-999.0,4,-99.99,,,-99.99,BloomSky,2017-06-22 12:06:00,
2017-06-22 08:11:00,75.4,-12.7,29.99,North,-9999,-999.9,-999.0,2,-99.99,,,-99.99,BloomSky,2017-06-22 12:11:00,
2017-06-22 08:16:00,75.6,-7.9,29.99,North,-9999,-999.9,-999.0,3,-99.99,,,-99.99,BloomSky,2017-06-22 12:16:00,
2017-06-22 08:22:00,75.8,-17.6,30.02,North,-9999,-999.9,-999.0,1,-99.99,,,-99.99,BloomSky,2017-06-22 12:22:00,
2017-06-22 08:32:00,76.4,76.1,30.02,North,-9999,-999.9,-999.0,99,-99.99,,,-99.99,BloomSky,2017-06-22 12:32:00,
2017-06-22 08:37:00,76.6,76.3,30.02,North,-9999,-999.9,-999.0,99,-99.99,,,-99.99,BloomSky,2017-06-22 12:37:00,
2017-06-22 08:42:00,76.4,76.1,30.02,North,-9999,-999.9,-999.0,99,-99.99,,,-99.99,BloomSky,2017-06-22 12:42:00,
2017-06-22 08:47:00,76.7,76.4,30.02,North,-9999,-999.9,-999.0,99,-99.99,,,-99.99,BloomSky,2017-06-22 12:47:00,
2017-06-22 08:52:00,76.9,76.6,30.02,North,-9999,-999.9,-999.0,99,-99.99,,,-99.99,BloomSky,2017-06-22 12:52:00,
2017-06-22 08:57:00,77.1,76.8,30.02,North,-9999,-999.9,-999.0,99,-99.99,,,-99.99,BloomSky,2017-06-22 12:57:00,
2017-06-22 09:02:00,77.4,77.0,30.02,North,-9999,-999.9,-999.0,99,-99.99,,,-99.99,BloomSky,2017-06-22 13:02:00,
2017-06-22 09:07:00,77.8,77.4,30.02,North,-9999,-999.9,-999.0,99,-99.99,,,-99.99,BloomSky,2017-06-22 13:07:00,
2017-06-22 09:12:00,78.0,77.7,30.02,North,-9999,-999.9,-999.0,99,-99.99,,,-99.99,BloomSky,2017-06-22 13:12:00,
2017-06-22 09:17:00,78.2,77.9,30.02,North,-9999,-999.9,-999.0,99,-99.99,,,-99.99,BloomSky,2017-06-22 13:17:00,
2017-06-22 09:22:00,78.5,78.1,30.02,North,-9999,-999.9,-999.0,99,-99.99,,,-99.99,BloomSky,2017-06-22 13:22:00,
2017-06-22 09:27:00,78.9,78.6,30.02,North,-9999,-999.9,-999.0,99,-99.99,,,-99.99,BloomSky,2017-06-22 13:27:00,
2017-06-22 09:32:00,79.4,79.1,30.02,North,-9999,-999.9,-999.0,99,-99.99,,,-99.99,BloomSky,2017-06-22 13:32:00,
2017-06-22 09:37:00,79.7,79.4,30.02,North,-9999,-999.9,-999.0,99,-99.99,,,-99.99,BloomSky,2017-06-22 13:37:00,
2017-06-22 09:42:00,80.1,79.8,30.02,North,-9999,-999.9,-999.0,99,-99.99,,,-99.99,BloomSky,2017-06-22 13:42:00,
2017-06-22 09:47:00,80.2,79.9,30.02,North,-9999,-999.9,-999.0,99,-99.99,,,-99.99,BloomSky,2017-06-22 13:47:00,
2017-06-22 09:52:00,80.2,79.8,30.02,North,-9999,-999.9,-999.0,99,-99.99,,,-99.99,BloomSky,2017-06-22 13:52:00,
2017-06-22 09:57:00,80.6,80.3,30.02,North,-9999,-999.9,-999.0,99,-99.99,,,-99.99,BloomSky,2017-06-22 13:57:00,
2017-06-22 10:02:00,80.6,80.3,30.02,North,-9999,-999.9,-999.0,99,-99.99,,,-99.99,BloomSky,2017-06-22 14:02:00,
2017-06-22 10:07:00,80.9,80.6,30.02,North,-9999,-999.9,-999.0,99,-99.99,,,-99.99,BloomSky,2017-06-22 14:07:00,
2017-06-22 10:12:00,81.3,81.0,30.02,North,-9999,-999.9,-999.0,99,-99.99,,,-99.99,BloomSky,2017-06-22 14:12:00,
2017-06-22 10:17:00,82.0,81.7,30.02,North,-9999,-999.9,-999.0,99,-99.99,,,-99.99,BloomSky,2017-06-22 14:17:00,
2017-06-22 10:22:00,82.5,81.2,30.02,North,-9999,-999.9,-999.0,96,-99.99,,,-99.99,BloomSky,2017-06-22 14:22:00,
2017-06-22 10:27:00,82.9,81.6,30.02,North,-9999,-999.9,-999.0,96,-99.99,,,-99.99,BloomSky,2017-06-22 14:27:00,
2017-06-22 10:32:00,83.4,81.8,30.02,North,-9999,-999.9,-999.0,95,-99.99,,,-99.99,BloomSky,2017-06-22 14:32:00,
2017-06-22 10:42:00,83.7,81.5,30.02,North,-9999,-999.9,-999.0,93,-99.99,,,-99.99,BloomSky,2017-06-22 14:42:00,
2017-06-22 10:52:00,84.6,81.6,30.02,North,-9999,-999.9,-999.0,91,-99.99,,,-99.99,BloomSky,2017-06-22 14:52:00,
2017-06-22 10:58:00,85.0,81.4,30.02,North,-9999,-999.9,-999.0,89,-99.99,,,-99.99,BloomSky,2017-06-22 14:58:00,
2017-06-22 11:03:00,85.1,82.2,30.02,North,-9999,-999.9,-999.0,91,-99.99,,,-99.99,BloomSky,2017-06-22 15:03:00,
2017-06-22 11:08:00,85.7,82.1,30.02,North,-9999,-999.9,-999.0,89,-99.99,,,-99.99,BloomSky,2017-06-22 15:08:00,
2017-06-22 11:13:00,85.7,82.1,30.02,North,-9999,-999.9,-999.0,89,-99.99,,,-99.99,BloomSky,2017-06-22 15:13:00,
2017-06-22 11:18:00,85.8,81.8,30.02,North,-9999,-999.9,-999.0,88,-99.99,,,-99.99,BloomSky,2017-06-22 15:18:00,
2017-06-22 11:23:00,85.4,81.4,30.02,North,-9999,-999.9,-999.0,88,-99.99,,,-99.99,BloomSky,2017-06-22 15:23:00,
2017-06-22 11:33:00,85.5,82.2,30.02,North,-9999,-999.9,-999.0,90,-99.99,,,-99.99,BloomSky,2017-06-22 15:33:00,
2017-06-22 11:38:00,86.0,82.1,30.02,North,-9999,-999.9,-999.0,88,-99.99,,,-99.99,BloomSky,2017-06-22 15:38:00,
2017-06-22 11:43:00,86.3,82.0,30.02,North,-9999,-999.9,-999.0,87,-99.99,,,-99.99,BloomSky,2017-06-22 15:43:00,
2017-06-22 11:48:00,86.7,82.1,30.02,North,-9999,-999.9,-999.0,86,-99.99,,,-99.99,BloomSky,2017-06-22 15:48:00,
2017-06-22 11:53:00,86.3,81.7,30.02,North,-9999,-999.9,-999.0,86,-99.99,,,-99.99,BloomSky,2017-06-22 15:53:00,
2017-06-22 11:58:00,86.2,82.9,30.02,North,-9999,-999.9,-999.0,90,-99.99,,,-99.99,BloomSky,2017-06-22 15:58:00,
2017-06-22 12:03:00,87.9,84.2,30.02,North,-9999,-999.9,-999.0,89,-99.99,,,-99.99,BloomSky,2017-06-22 16:03:00,
2017-06-22 12:08:00,88.2,83.9,30.02,North,-9999,-999.9,-999.0,87,-99.99,,,-99.99,BloomSky,2017-06-22 16:08:00,
2017-06-22 12:18:00,87.9,84.9,30.02,North,-9999,-999.9,-999.0,91,-99.99,,,-99.99,BloomSky,2017-06-22 16:18:00,
2017-06-22 12:23:00,86.6,84.0,30.02,North,-9999,-999.9,-999.0,92,-99.99,,,-99.99,BloomSky,2017-06-22 16:23:00,
2017-06-22 12:28:00,86.7,84.5,30.02,North,-9999,-999.9,-999.0,93,-99.99,,,-99.99,BloomSky,2017-06-22 16:28:00,
2017-06-22 12:38:00,86.6,85.3,30.02,North,-9999,-999.9,-999.0,96,-99.99,,,-99.99,BloomSky,2017-06-22 16:38:00,
2017-06-22 12:43:00,86.8,84.2,30.02,North,-9999,-999.9,-999.0,92,-99.99,,,-99.99,BloomSky,2017-06-22 16:43:00,
2017-06-22 12:48:00,86.1,84.5,30.02,North,-9999,-999.9,-999.0,95,-99.99,,,-99.99,BloomSky,2017-06-22 16:48:00,
2017-06-22 12:58:00,86.4,85.1,30.02,North,-9999,-999.9,-999.0,96,-99.99,,,-99.99,BloomSky,2017-06-22 16:58:00,
2017-06-22 13:08:00,86.3,84.3,30.02,North,-9999,-999.9,-999.0,94,-99.99,,,-99.99,BloomSky,2017-06-22 17:08:00,
2017-06-22 13:13:00,86.2,83.9,30.02,North,-9999,-999.9,-999.0,93,-99.99,,,-99.99,BloomSky,2017-06-22 17:13:00,
2017-06-22 13:18:00,87.5,84.6,30.02,North,-9999,-999.9,-999.0,91,-99.99,,,-99.99,BloomSky,2017-06-22 17:18:00,
2017-06-22 13:23:00,87.2,84.5,30.02,North,-9999,-999.9,-999.0,92,-99.99,,,-99.99,BloomSky,2017-06-22 17:23:00,
2017-06-22 13:29:00,87.2,84.6,30.02,North,-9999,-999.9,-999.0,92,-99.99,,,-99.99,BloomSky,2017-06-22 17:29:00,
2017-06-22 13:34:00,86.8,84.8,29.99,North,-9999,-999.9,-999.0,94,-99.99,,,-99.99,BloomSky,2017-06-22 17:34:00,
2017-06-22 13:39:00,86.1,84.4,29.99,North,-9999,-999.9,-999.0,95,-99.99,,,-99.99,BloomSky,2017-06-22 17:39:00,
2017-06-22 13:49:00,86.5,83.6,29.99,North,-9999,-999.9,-999.0,91,-99.99,,,-99.99,BloomSky,2017-06-22 17:49:00,
2017-06-22 13:54:00,85.8,82.9,29.99,North,-9999,-999.9,-999.0,91,-99.99,,,-99.99,BloomSky,2017-06-22 17:54:00,
2017-06-22 13:59:00,85.7,82.7,29.99,North,-9999,-999.9,-999.0,91,-99.99,,,-99.99,BloomSky,2017-06-22 17:59:00,
2017-06-22 14:04:00,85.6,83.0,29.99,North,-9999,-999.9,-999.0,92,-99.99,,,-99.99,BloomSky,2017-06-22 18:04:00,
2017-06-22 14:14:00,86.3,82.7,29.99,North,-9999,-999.9,-999.0,89,-99.99,,,-99.99,BloomSky,2017-06-22 18:14:00,
2017-06-22 14:19:00,85.7,82.4,29.99,North,-9999,-999.9,-999.0,90,-99.99,,,-99.99,BloomSky,2017-06-22 18:19:00,
2017-06-22 14:24:00,85.7,82.1,29.99,North,-9999,-999.9,-999.0,89,-99.99,,,-99.99,BloomSky,2017-06-22 18:24:00,
2017-06-22 14:34:00,85.6,82.0,29.99,North,-9999,-999.9,-999.0,89,-99.99,,,-99.99,BloomSky,2017-06-22 18:34:00,
2017-06-22 14:39:00,86.1,82.1,29.99,North,-9999,-999.9,-999.0,88,-99.99,,,-99.99,BloomSky,2017-06-22 18:39:00,
2017-06-22 14:49:00,86.0,82.4,29.99,North,-9999,-999.9,-999.0,89,-99.99,,,-99.99,BloomSky,2017-06-22 18:49:00,
2017-06-22 14:54:00,86.0,81.7,29.99,North,-9999,-999.9,-999.0,87,-99.99,,,-99.99,BloomSky,2017-06-22 18:54:00,
2017-06-22 15:04:00,86.3,82.0,29.99,North,-9999,-999.9,-999.0,87,-99.99,,,-99.99,BloomSky,2017-06-22 19:04:00,
2017-06-22 15:09:00,86.4,82.1,29.99,North,-9999,-999.9,-999.0,87,-99.99,,,-99.99,BloomSky,2017-06-22 19:09:00,
2017-06-22 15:14:00,85.8,81.6,29.99,North,-9999,-999.9,-999.0,87,-99.99,,,-99.99,BloomSky,2017-06-22 19:14:00,
2017-06-22 15:19:00,86.0,82.0,29.99,North,-9999,-999.9,-999.0,88,-99.99,,,-99.99,BloomSky,2017-06-22 19:19:00,
2017-06-22 15:24:00,86.6,82.3,29.99,North,-9999,-999.9,-999.0,87,-99.99,,,-99.99,BloomSky,2017-06-22 19:24:00,
2017-06-22 15:29:00,86.2,82.9,29.99,North,-9999,-999.9,-999.0,90,-99.99,,,-99.99,BloomSky,2017-06-22 19:29:00,
2017-06-22 15:34:00,85.9,81.6,29.99,North,-9999,-999.9,-999.0,87,-99.99,,,-99.99,BloomSky,2017-06-22 19:34:00,
2017-06-22 15:39:00,85.4,81.5,29.99,North,-9999,-999.9,-999.0,88,-99.99,,,-99.99,BloomSky,2017-06-22 19:39:00,
2017-06-22 15:44:00,85.6,81.0,29.99,North,-9999,-999.9,-999.0,86,-99.99,,,-99.99,BloomSky,2017-06-22 19:44:00,
2017-06-22 15:49:00,85.4,81.1,29.99,North,-9999,-999.9,-999.0,87,-99.99,,,-99.99,BloomSky,2017-06-22 19:49:00,